Wednesday, December 12, 2018, 11:20 PM EST
Back to Local

KACK, Nantucket Memorial Airport

Location: Nantucket, MA, United States Lat: 41.25
Local Time: 11:20 PM EST ( 4:20 GMT) Lon: -70.067
Time Zone: US/Eastern Elev: 49 ft

Show me the last for .
Show Decoded

2018-12-12 22:53 METAR KACK 130353Z AUTO 01008KT 10SM SCT044 M02/M10 A3029 RMK AO2 SLP256
                 T10171100 =
2018-12-12 21:53 METAR KACK 130253Z AUTO 35010KT 10SM FEW042 M01/M08 A3027 RMK AO2 SLP250
                 T10061083 53032 =
2018-12-12 20:53 METAR KACK 130153Z 34011KT 10SM CLR 00/M10 A3024 RMK AO2 SLP239 T00001100 =
2018-12-12 19:53 METAR KACK 130053Z 34017G23KT 10SM CLR 01/M10 A3020 RMK AO2 SLP226 T00061100 =
2018-12-12 18:53 METAR KACK 122353Z 34014G21KT 10SM CLR 01/M11 A3018 RMK AO2 SLP218 T00061106
                 10033 20006 51032 =
2018-12-12 17:53 METAR KACK 122253Z 32010KT 10SM CLR 01/M10 A3015 RMK AO2 SLP209 T00061100 =
2018-12-12 16:53 METAR KACK 122153Z 34013KT 10SM CLR 01/M09 A3011 RMK AO2 SLP196 T00111094 =
2018-12-12 15:53 METAR KACK 122053Z 33011KT 10SM FEW047 01/M09 A3008 RMK AO2 SLP186 T00111089
                 53022 =
2018-12-12 14:53 METAR KACK 121953Z 35010KT 10SM BKN049 02/M07 A3005 RMK AO2 SLP175 T00171067 =
2018-12-12 13:53 METAR KACK 121853Z 34011KT 10SM SCT042 03/M07 A3002 RMK AO2 SLP167 T00331072 =
2018-12-12 12:53 METAR KACK 121753Z 31013KT 10SM CLR 03/M06 A3002 RMK AO2 SLP164 T00281061 10028
                 21006 53010 =
2018-12-12 11:53 METAR KACK 121653Z 32016KT 10SM CLR 02/M05 A3001 RMK AO2 SLP160 T00221050 =
2018-12-12 10:53 METAR KACK 121553Z 33015KT 10SM CLR 02/M06 A2999 RMK AO2 SLP156 T00171056 =
2018-12-12 09:53 METAR KACK 121453Z 32013KT 10SM CLR 01/M04 A2999 RMK AO2 SLP154 T00111039 51024
                 =
2018-12-12 08:53 METAR KACK 121353Z 34014KT 10SM CLR 01/M04 A2997 RMK AO2 SLP147 T00061044 =
2018-12-12 07:53 METAR KACK 121253Z 32014G20KT 10SM FEW032 M01/M06 A2994 RMK AO2 SLP140 T10061056
                 =
2018-12-12 06:53 METAR KACK 121153Z 31015G19KT 10SM OVC060 M01/M05 A2991 RMK AO2 SNE1059 SLP130
                 P0000 60001 70001 T10061050 10006 21011 53024 $ =
2018-12-12 05:53 METAR KACK 121053Z 33014KT 8SM -SN SCT025 BKN032 OVC049 01/M03 A2989 RMK AO2
                 SLP120 P0001 T00061033 $ =
2018-12-12 05:40 METAR KACK 121040Z AUTO 32012KT 7SM -SN FEW019 SCT030 OVC049 00/M03 A2988 RMK
                 AO2 P0001 T00001028 $ =
2018-12-12 05:16 METAR KACK 121016Z AUTO 32009KT 4SM -SN SCT019 BKN024 OVC034 01/M02 A2987 RMK
                 AO2 P0000 T00061022 $ =
2018-12-12 04:53 METAR KACK 120953Z AUTO 32003KT 4SM -SN BR FEW015 BKN033 OVC041 00/M01 A2986 RMK
                 AO2 SLP112 P0000 T00001011 $ =
2018-12-12 04:15 METAR KACK 120915Z AUTO 03004KT 3SM -SN BR FEW006 BKN031 OVC046 00/M01 A2985 RMK
                 AO2 P0000 T00001011 $ =
2018-12-12 04:12 METAR KACK 120912Z AUTO 02005KT 2 1/2SM -SN BR FEW006 BKN029 OVC046 00/M01 A2985
                 RMK AO2 P0000 T00001011 $ =
2018-12-12 03:56 METAR KACK 120856Z AUTO 36006KT 2SM -SN BR SCT006 BKN011 OVC019 01/M01 A2985 RMK
                 AO2 P0000 T00061006 $ =
2018-12-12 03:53 METAR KACK 120853Z AUTO 36007KT 1 3/4SM -SN BR BKN008 BKN013 OVC019 00/M01 A2984
                 RMK AO2 SNB58 SLP106 P0000 60000 T00001006 $ =
2018-12-12 03:43 METAR KACK 120843Z AUTO 36005KT 2SM -SN BR SCT006 BKN011 OVC025 00/M01 A2984 RMK
                 AO2 SNB58 P0000 T00001006 $ =
2018-12-12 03:36 METAR KACK 120836Z AUTO 34006KT 1 1/2SM -SN BR BKN009 BKN014 OVC025 00/M01 A2985
                 RMK AO2 SNB58 P0000 T00001006 $ =
2018-12-12 03:28 METAR KACK 120828Z AUTO 34005KT 1 3/4SM -SN BR FEW006 SCT009 OVC027 00/M01 A2985
                 RMK AO2 SNB58 P0000 T00001006 $ =
2018-12-12 03:26 METAR KACK 120826Z AUTO 34005KT 2SM -SN BR 00/M01 A2985 RMK AO2 SNB58 P0000
                 T00001006 $ =
2018-12-12 03:12 METAR KACK 120812Z AUTO 35003KT 1 3/4SM -SN BR 00/M01 A2985 RMK AO2 SNB58 P0000
                 T00001011 $ =
2018-12-12 02:53 METAR KACK 120753Z AUTO 34004KT 4SM -SN BR OVC034 01/M01 A2986 RMK AO2 SLP110
                 P0000 T00061011 =
2018-12-12 01:53 METAR KACK 120653Z AUTO 35006KT 8SM -SN OVC032 01/M04 A2986 RMK AO2 SNB49 SLP111
                 P0000 T00061039 =
2018-12-12 00:53 METAR KACK 120553Z AUTO 05003KT 10SM BKN039 OVC050 M01/M04 A2985 RMK AO2 SLP107
                 T10061044 10006 21050 56028 =
2018-12-11 23:53 METAR KACK 120453Z AUTO 08005KT 10SM OVC048 M01/M04 A2987 RMK AO2 SLP114
                 T10111039 400441050 =

Support USWX by starting your Amazon purchase here.